Time;durP1;ratioP1;P1;durP2;ratioP2;P2;SDS_P1;SDS_P2;PMS_P1;PMS_P2;Temp;Humidity;BMP_temperature;BMP_pressure;BME280_temperature;BME280_humidity;BME280_pressure;Samples;Min_cycle;Max_cycle;Signal;HPM_P1;HPM_P2
2022/12/01 00:00:08;;;;;;;17.67;10.73;;;;;;;;;;6579622;28;20172;-87
2022/12/01 00:03:19;;;;;;;25.00;14.33;;;;;;;;;;6597169;28;20570;-87
2022/12/01 00:06:29;;;;;;;13.90;9.03;;;;;;;;;;6596837;28;20180;-87
2022/12/01 00:13:28;;;;;;;17.60;11.00;;;;;;;;;;6517120;28;20201;-87
2022/12/01 00:16:39;;;;;;;18.60;11.70;;;;;;;;;;6522071;28;20706;-87
2022/12/01 00:19:50;;;;;;;25.60;14.43;;;;;;;;;;6597661;28;20161;-87
2022/12/01 00:23:00;;;;;;;22.80;12.47;;;;;;;;;;6579021;28;20230;-87
2022/12/01 00:26:10;;;;;;;22.23;14.03;;;;;;;;;;6596370;28;20683;-87
2022/12/01 00:29:21;;;;;;;25.43;15.57;;;;;;;;;;6596711;28;20172;-87
2022/12/01 00:32:31;;;;;;;20.83;12.57;;;;;;;;;;6596820;28;20220;-87
2022/12/01 00:35:41;;;;;;;16.17;11.33;;;;;;;;;;6596400;28;20282;-87
2022/12/01 00:38:52;;;;;;;16.47;10.80;;;;;;;;;;6596502;28;20204;-87
2022/12/01 00:42:02;;;;;;;15.37;9.67;;;;;;;;;;6596401;28;20184;-87
2022/12/01 00:45:13;;;;;;;17.40;9.83;;;;;;;;;;6596353;28;20183;-87
2022/12/01 00:48:23;;;;;;;19.90;12.27;;;;;;;;;;6596294;28;20184;-86
2022/12/01 00:51:33;;;;;;;16.43;10.37;;;;;;;;;;6596237;28;20623;-87
2022/12/01 00:54:44;;;;;;;16.73;10.60;;;;;;;;;;6596156;28;20204;-87
2022/12/01 00:57:54;;;;;;;20.50;12.33;;;;;;;;;;6578217;28;20207;-86
2022/12/01 01:01:04;;;;;;;19.03;11.47;;;;;;;;;;6596005;28;20180;-87
2022/12/01 01:04:15;;;;;;;13.77;8.20;;;;;;;;;;6596057;28;20204;-87
2022/12/01 01:07:25;;;;;;;20.80;12.67;;;;;;;;;;6596332;28;20180;-87
2022/12/01 01:10:42;;;;;;;18.03;11.47;;;;;;;;;;6595851;28;20187;-87
2022/12/01 01:13:53;;;;;;;24.17;13.63;;;;;;;;;;6596401;28;20568;-87
2022/12/01 01:17:03;;;;;;;28.60;16.50;;;;;;;;;;6596071;28;20192;-87
2022/12/01 01:20:13;;;;;;;22.43;13.70;;;;;;;;;;6595424;28;20200;-87
2022/12/01 01:23:24;;;;;;;20.47;12.47;;;;;;;;;;6595694;28;20173;-87
2022/12/01 01:26:35;;;;;;;20.83;11.60;;;;;;;;;;6596347;28;20271;-87
2022/12/01 01:29:46;;;;;;;21.97;13.63;;;;;;;;;;6595276;28;20206;-87
2022/12/01 01:32:56;;;;;;;28.07;16.27;;;;;;;;;;6595484;28;20220;-87
2022/12/01 01:36:06;;;;;;;30.23;16.50;;;;;;;;;;6577627;28;20207;-87
2022/12/01 01:39:17;;;;;;;29.03;17.57;;;;;;;;;;6577791;28;20181;-87
2022/12/01 01:42:27;;;;;;;26.10;15.43;;;;;;;;;;6595794;28;20220;-87
2022/12/01 01:45:37;;;;;;;28.63;15.50;;;;;;;;;;6577654;28;20211;-87
2022/12/01 01:48:55;;;;;;;24.20;14.40;;;;;;;;;;6595732;28;20255;-87
2022/12/01 01:52:06;;;;;;;25.63;15.63;;;;;;;;;;6595622;28;20181;-87
2022/12/01 01:55:16;;;;;;;29.80;16.30;;;;;;;;;;6595189;28;20254;-87
2022/12/01 01:58:27;;;;;;;22.33;13.60;;;;;;;;;;6594998;28;20168;-87
2022/12/01 02:01:37;;;;;;;29.60;17.30;;;;;;;;;;6578098;28;20176;-87
2022/12/01 02:04:50;;;;;;;23.23;15.27;;;;;;;;;;6595233;28;20169;-86
2022/12/01 02:08:01;;;;;;;23.67;14.57;;;;;;;;;;6577748;28;20715;-86
2022/12/01 02:11:29;;;;;;;26.40;15.73;;;;;;;;;;6595153;28;20588;-86
2022/12/01 02:14:40;;;;;;;20.83;12.53;;;;;;;;;;6595467;28;20578;-87
2022/12/01 02:18:05;;;;;;;28.10;15.10;;;;;;;;;;6594962;28;20196;-86
2022/12/01 02:21:34;;;;;;;21.23;12.73;;;;;;;;;;6595329;28;20207;-87
2022/12/01 02:24:50;;;;;;;29.33;17.83;;;;;;;;;;6594680;28;20650;-87
2022/12/01 02:28:13;;;;;;;23.90;15.63;;;;;;;;;;6580943;28;20172;-86
2022/12/01 02:31:29;;;;;;;26.83;16.17;;;;;;;;;;6582428;28;20655;-87
2022/12/01 02:34:43;;;;;;;19.30;11.33;;;;;;;;;;6581677;28;20202;-87
2022/12/01 02:37:53;;;;;;;20.87;14.27;;;;;;;;;;6599433;28;20200;-86
2022/12/01 02:41:04;;;;;;;26.27;15.93;;;;;;;;;;6598958;28;20647;-87
2022/12/01 02:44:20;;;;;;;25.17;14.00;;;;;;;;;;6581530;28;20631;-87
2022/12/01 02:47:32;;;;;;;24.00;14.40;;;;;;;;;;6581377;28;20541;-87
2022/12/01 02:50:44;;;;;;;26.50;15.93;;;;;;;;;;6599793;28;20220;-87
2022/12/01 02:53:55;;;;;;;22.57;12.83;;;;;;;;;;6599122;28;20168;-86
2022/12/01 02:57:07;;;;;;;18.67;12.20;;;;;;;;;;6598812;28;20234;-87
2022/12/01 03:00:18;;;;;;;21.27;13.67;;;;;;;;;;6598056;28;20187;-87
2022/12/01 03:03:37;;;;;;;26.27;15.50;;;;;;;;;;6598989;28;20176;-87
2022/12/01 03:06:54;;;;;;;22.80;13.93;;;;;;;;;;6594172;28;20181;-87
2022/12/01 03:10:19;;;;;;;20.53;12.47;;;;;;;;;;6598341;28;20195;-87
2022/12/01 03:13:51;;;;;;;21.50;13.73;;;;;;;;;;6598203;28;20169;-87
2022/12/01 03:17:07;;;;;;;24.67;15.77;;;;;;;;;;6580998;28;20576;-87
2022/12/01 03:20:23;;;;;;;25.10;15.57;;;;;;;;;;6581031;28;20703;-87
2022/12/01 03:23:36;;;;;;;22.57;14.40;;;;;;;;;;6598654;28;20161;-87
2022/12/01 03:26:51;;;;;;;22.70;14.40;;;;;;;;;;6598889;28;20184;-86
2022/12/01 03:30:02;;;;;;;27.07;16.23;;;;;;;;;;6597860;28;20176;-87
2022/12/01 03:33:18;;;;;;;25.33;15.67;;;;;;;;;;6597441;28;20228;-87
2022/12/01 03:36:31;;;;;;;20.90;13.90;;;;;;;;;;6597953;28;20287;-87
2022/12/01 03:39:42;;;;;;;19.67;11.57;;;;;;;;;;6596761;28;20181;-87
2022/12/01 03:43:00;;;;;;;25.53;14.73;;;;;;;;;;6598179;28;20172;-87
2022/12/01 03:46:20;;;;;;;25.13;15.57;;;;;;;;;;6597388;28;20183;-87
2022/12/01 03:49:30;;;;;;;21.87;14.43;;;;;;;;;;6597867;28;20173;-86
2022/12/01 03:53:03;;;;;;;20.37;13.17;;;;;;;;;;6597255;28;20217;-87
2022/12/01 03:56:15;;;;;;;19.97;12.43;;;;;;;;;;6580620;28;20204;-87
2022/12/01 03:59:26;;;;;;;22.00;13.70;;;;;;;;;;6579565;28;20188;-87
2022/12/01 04:02:37;;;;;;;25.77;15.83;;;;;;;;;;6597272;28;20203;-86
2022/12/01 04:05:47;;;;;;;20.33;12.57;;;;;;;;;;6598312;28;20176;-87
2022/12/01 04:08:57;;;;;;;19.70;10.57;;;;;;;;;;6596988;28;20172;-87
2022/12/01 04:12:29;;;;;;;22.67;15.53;;;;;;;;;;6597817;28;20672;-87
2022/12/01 04:15:39;;;;;;;22.17;13.73;;;;;;;;;;6597141;28;20238;-87
2022/12/01 04:18:49;;;;;;;23.67;14.67;;;;;;;;;;6579259;28;20275;-87
2022/12/01 04:22:00;;;;;;;20.23;12.73;;;;;;;;;;6596464;28;20195;-87
2022/12/01 04:25:11;;;;;;;27.83;17.10;;;;;;;;;;6597025;28;20196;-87
2022/12/01 04:28:21;;;;;;;24.33;15.00;;;;;;;;;;6596638;28;20203;-86
2022/12/01 04:31:31;;;;;;;26.57;15.50;;;;;;;;;;6596264;28;20228;-87
2022/12/01 04:34:42;;;;;;;23.43;15.23;;;;;;;;;;6596070;28;20224;-87
2022/12/01 04:37:52;;;;;;;27.83;17.77;;;;;;;;;;6579692;28;20541;-87
2022/12/01 04:41:09;;;;;;;25.70;16.87;;;;;;;;;;6596385;28;20210;-87
2022/12/01 04:44:20;;;;;;;28.20;17.30;;;;;;;;;;6596296;28;20259;-87
2022/12/01 04:47:30;;;;;;;28.90;16.77;;;;;;;;;;6596590;28;20588;-86
2022/12/01 04:50:40;;;;;;;28.50;15.83;;;;;;;;;;6595472;28;20170;-87
2022/12/01 04:53:51;;;;;;;27.27;15.70;;;;;;;;;;6595765;28;20558;-87
2022/12/01 04:57:01;;;;;;;24.93;14.47;;;;;;;;;;6596040;28;20623;-87
2022/12/01 05:00:12;;;;;;;25.83;15.53;;;;;;;;;;6595642;28;20204;-87
2022/12/01 05:03:22;;;;;;;29.77;18.53;;;;;;;;;;6595622;28;20168;-87
2022/12/01 05:06:33;;;;;;;23.10;14.30;;;;;;;;;;6596377;28;20603;-87
2022/12/01 05:09:43;;;;;;;31.10;17.40;;;;;;;;;;6595927;28;20200;-87
2022/12/01 05:12:54;;;;;;;27.10;14.90;;;;;;;;;;6596151;28;20686;-87
2022/12/01 05:16:11;;;;;;;21.53;13.40;;;;;;;;;;6578010;28;20362;-87
2022/12/01 05:23:04;;;;;;;25.37;13.73;;;;;;;;;;6551201;28;20601;-87
2022/12/01 05:26:15;;;;;;;23.93;15.07;;;;;;;;;;6595637;28;20176;-87
2022/12/01 05:29:25;;;;;;;27.80;15.20;;;;;;;;;;6595584;28;20187;-87
2022/12/01 05:32:35;;;;;;;27.33;16.23;;;;;;;;;;6595567;28;20690;-87
2022/12/01 05:35:49;;;;;;;21.87;13.33;;;;;;;;;;6595032;28;20714;-87
2022/12/01 05:38:59;;;;;;;22.00;12.07;;;;;;;;;;6596192;28;20196;-87
2022/12/01 05:42:10;;;;;;;22.77;14.10;;;;;;;;;;6595114;28;20200;-87
2022/12/01 05:45:20;;;;;;;27.57;16.23;;;;;;;;;;6578779;28;20635;-86
2022/12/01 05:48:30;;;;;;;16.07;9.00;;;;;;;;;;6577778;28;20238;-87
2022/12/01 05:51:42;;;;;;;30.07;16.40;;;;;;;;;;6595678;28;20204;-86
2022/12/01 05:54:52;;;;;;;26.13;15.47;;;;;;;;;;6595185;28;20169;-87
2022/12/01 05:58:02;;;;;;;29.43;18.40;;;;;;;;;;6594809;28;20199;-87
2022/12/01 06:01:13;;;;;;;32.57;19.33;;;;;;;;;;6578539;28;20208;-87
2022/12/01 06:04:23;;;;;;;32.97;20.23;;;;;;;;;;6599905;28;20239;-87
2022/12/01 06:07:34;;;;;;;35.07;19.53;;;;;;;;;;6599829;28;20175;-87
2022/12/01 06:10:44;;;;;;;34.03;19.57;;;;;;;;;;6600753;28;20208;-87
2022/12/01 06:13:55;;;;;;;29.40;15.90;;;;;;;;;;6600223;28;20202;-87
2022/12/01 06:17:05;;;;;;;32.17;17.87;;;;;;;;;;6582178;28;20208;-87
2022/12/01 06:20:15;;;;;;;40.30;21.80;;;;;;;;;;6600241;28;20172;-87
2022/12/01 06:23:26;;;;;;;39.23;22.93;;;;;;;;;;6600433;28;20188;-87
2022/12/01 06:26:36;;;;;;;36.73;20.33;;;;;;;;;;6599654;28;20176;-87
2022/12/01 06:29:48;;;;;;;21.83;13.37;;;;;;;;;;6599680;28;20256;-87
2022/12/01 06:32:58;;;;;;;28.87;17.77;;;;;;;;;;6599817;28;20319;-87
2022/12/01 06:36:09;;;;;;;22.47;13.27;;;;;;;;;;6599338;28;20207;-87
2022/12/01 06:39:20;;;;;;;33.57;18.70;;;;;;;;;;6599099;28;20176;-87
2022/12/01 06:42:31;;;;;;;27.67;14.10;;;;;;;;;;6599464;28;20611;-87
2022/12/01 06:45:41;;;;;;;27.97;15.60;;;;;;;;;;6599331;28;20172;-87
2022/12/01 06:48:51;;;;;;;33.03;17.63;;;;;;;;;;6598803;28;20196;-87
2022/12/01 06:52:02;;;;;;;26.43;15.77;;;;;;;;;;6598857;28;20184;-87
2022/12/01 06:55:12;;;;;;;21.27;14.10;;;;;;;;;;6598663;28;20168;-87
2022/12/01 06:58:23;;;;;;;23.30;13.60;;;;;;;;;;6599232;28;20646;-87
2022/12/01 07:01:33;;;;;;;25.40;14.40;;;;;;;;;;6598684;28;20587;-86
2022/12/01 07:04:43;;;;;;;25.67;14.57;;;;;;;;;;6597796;28;20180;-87
2022/12/01 07:07:53;;;;;;;31.97;18.77;;;;;;;;;;6598666;28;20196;-87
2022/12/01 07:11:06;;;;;;;28.30;16.90;;;;;;;;;;6598635;28;20268;-87
2022/12/01 07:14:25;;;;;;;28.10;16.33;;;;;;;;;;6598412;28;20180;-87
2022/12/01 07:17:36;;;;;;;27.63;15.47;;;;;;;;;;6580677;28;20209;-87
2022/12/01 07:20:46;;;;;;;27.43;17.50;;;;;;;;;;6581006;28;20180;-87
2022/12/01 07:23:57;;;;;;;29.40;16.37;;;;;;;;;;6580414;28;20191;-87
2022/12/01 07:27:07;;;;;;;19.50;11.83;;;;;;;;;;6598183;28;20176;-87
2022/12/01 07:30:17;;;;;;;17.37;10.80;;;;;;;;;;6598110;28;20179;-87
2022/12/01 07:33:28;;;;;;;25.73;15.20;;;;;;;;;;6598847;28;20240;-87
2022/12/01 07:36:38;;;;;;;16.57;10.50;;;;;;;;;;6597614;28;20211;-87
2022/12/01 07:39:48;;;;;;;15.53;10.43;;;;;;;;;;6580207;28;20619;-87
2022/12/01 07:42:58;;;;;;;17.87;11.83;;;;;;;;;;6597826;28;20601;-87
2022/12/01 07:46:13;;;;;;;21.23;13.77;;;;;;;;;;6597436;28;20667;-87
2022/12/01 07:49:23;;;;;;;31.33;21.23;;;;;;;;;;6598121;28;20514;-87
2022/12/01 07:52:33;;;;;;;21.10;13.83;;;;;;;;;;6597281;28;20172;-87
2022/12/01 07:55:47;;;;;;;21.97;14.87;;;;;;;;;;6597368;28;20196;-87
2022/12/01 07:58:57;;;;;;;21.17;13.57;;;;;;;;;;6597808;28;20177;-87
2022/12/01 08:02:09;;;;;;;15.43;10.30;;;;;;;;;;6579157;28;20605;-87
2022/12/01 08:05:19;;;;;;;19.70;13.07;;;;;;;;;;6596623;28;20180;-87
2022/12/01 08:08:31;;;;;;;20.77;13.57;;;;;;;;;;6597112;28;20169;-87
2022/12/01 08:11:41;;;;;;;20.97;13.73;;;;;;;;;;6579432;28;20184;-87
2022/12/01 08:14:51;;;;;;;18.70;12.47;;;;;;;;;;6597451;28;20626;-87
2022/12/01 08:18:02;;;;;;;18.03;12.67;;;;;;;;;;6597105;28;20234;-88
2022/12/01 08:21:16;;;;;;;14.87;9.57;;;;;;;;;;6596852;28;20184;-87
2022/12/01 08:24:27;;;;;;;12.17;9.27;;;;;;;;;;6596496;28;20303;-87
2022/12/01 08:27:37;;;;;;;18.63;12.33;;;;;;;;;;6596705;28;20630;-87
2022/12/01 08:30:47;;;;;;;22.83;14.70;;;;;;;;;;6595931;28;20246;-87
2022/12/01 08:33:58;;;;;;;18.40;12.27;;;;;;;;;;6596818;28;20184;-87
2022/12/01 08:37:08;;;;;;;21.80;14.23;;;;;;;;;;6578796;28;20676;-87
2022/12/01 08:40:19;;;;;;;17.97;11.00;;;;;;;;;;6578799;28;20180;-87
2022/12/01 08:43:29;;;;;;;22.83;14.77;;;;;;;;;;6578724;28;20176;-87
2022/12/01 08:46:39;;;;;;;24.10;14.80;;;;;;;;;;6596214;28;20168;-87
2022/12/01 08:49:50;;;;;;;23.23;14.93;;;;;;;;;;6596415;28;20254;-87
2022/12/01 08:53:00;;;;;;;15.00;9.23;;;;;;;;;;6596783;28;20184;-87
2022/12/01 08:56:12;;;;;;;19.07;12.63;;;;;;;;;;6595333;28;20207;-88
2022/12/01 08:59:23;;;;;;;27.30;17.10;;;;;;;;;;6594347;28;20176;-87
2022/12/01 09:02:33;;;;;;;32.00;20.40;;;;;;;;;;6576410;28;20242;-87
2022/12/01 09:05:43;;;;;;;23.33;15.43;;;;;;;;;;6576832;28;20639;-87
2022/12/01 09:08:54;;;;;;;24.33;16.57;;;;;;;;;;6576253;28;20180;-87
2022/12/01 09:12:04;;;;;;;30.10;19.03;;;;;;;;;;6595110;28;20172;-87
2022/12/01 09:15:14;;;;;;;33.37;20.37;;;;;;;;;;6594214;28;20715;-87
2022/12/01 09:18:25;;;;;;;22.83;15.03;;;;;;;;;;6595193;28;20207;-87
2022/12/01 09:21:38;;;;;;;27.67;18.03;;;;;;;;;;6595640;28;20222;-87
2022/12/01 09:24:48;;;;;;;25.53;16.90;;;;;;;;;;6574801;28;20623;-87
2022/12/01 09:27:58;;;;;;;22.83;13.90;;;;;;;;;;6595700;28;20288;-88
2022/12/01 09:31:10;;;;;;;38.00;23.30;;;;;;;;;;6595514;28;20227;-89
2022/12/01 09:34:20;;;;;;;38.60;23.60;;;;;;;;;;6595500;28;20562;-88
2022/12/01 09:37:30;;;;;;;31.47;18.60;;;;;;;;;;6599959;28;20195;-86
2022/12/01 09:40:42;;;;;;;25.20;14.90;;;;;;;;;;6599217;28;20231;-88
2022/12/01 09:43:59;;;;;;;28.73;17.50;;;;;;;;;;6599593;28;20237;-88
2022/12/01 09:47:18;;;;;;;32.07;18.63;;;;;;;;;;6595198;28;20188;-88
2022/12/01 09:50:30;;;;;;;27.37;15.90;;;;;;;;;;6599919;28;20173;-88
2022/12/01 09:53:41;;;;;;;22.47;13.97;;;;;;;;;;6591644;28;20173;-89
2022/12/01 09:56:58;;;;;;;40.83;22.27;;;;;;;;;;6556812;28;20240;-89
2022/12/01 10:00:17;;;;;;;33.17;20.23;;;;;;;;;;6574762;28;20162;-88
2022/12/01 10:03:43;;;;;;;30.33;17.97;;;;;;;;;;6594039;28;20200;-88
2022/12/01 10:06:57;;;;;;;27.00;15.00;;;;;;;;;;6598963;28;20157;-89
2022/12/01 10:10:13;;;;;;;36.97;20.20;;;;;;;;;;6580619;28;20241;-88
2022/12/01 10:13:25;;;;;;;23.80;14.47;;;;;;;;;;6596801;28;20226;-88
2022/12/01 10:16:58;;;;;;;28.57;15.67;;;;;;;;;;6578778;28;20223;-89
2022/12/01 10:20:15;;;;;;;51.00;27.63;;;;;;;;;;6583110;28;20307;-88
2022/12/01 10:23:35;;;;;;;41.83;24.87;;;;;;;;;;6598006;28;20658;-88
2022/12/01 10:27:12;;;;;;;37.20;21.80;;;;;;;;;;6580154;28;20658;-88
2022/12/01 10:30:23;;;;;;;34.30;21.43;;;;;;;;;;6558358;28;20184;-88
2022/12/01 10:33:44;;;;;;;26.63;16.97;;;;;;;;;;6598924;28;20228;-88
2022/12/01 10:36:55;;;;;;;37.30;21.37;;;;;;;;;;6572947;28;20578;-88
2022/12/01 10:40:11;;;;;;;30.10;18.87;;;;;;;;;;6598336;28;20184;-89
2022/12/01 10:43:26;;;;;;;27.10;17.63;;;;;;;;;;6598085;28;20538;-89
2022/12/01 10:46:44;;;;;;;22.13;14.77;;;;;;;;;;6598056;28;20191;-89
2022/12/01 10:49:55;;;;;;;19.50;13.17;;;;;;;;;;6599425;28;20184;-88
2022/12/01 10:53:05;;;;;;;34.93;20.73;;;;;;;;;;6585835;28;20192;-89
2022/12/01 10:56:19;;;;;;;32.10;19.90;;;;;;;;;;6573305;28;20201;-89
2022/12/01 10:59:47;;;;;;;18.90;10.73;;;;;;;;;;6573191;28;20174;-89
2022/12/01 11:02:58;;;;;;;21.93;13.70;;;;;;;;;;6584252;28;20616;-89
2022/12/01 11:06:09;;;;;;;25.37;14.17;;;;;;;;;;6581143;28;20179;-89
2022/12/01 11:09:22;;;;;;;28.97;16.73;;;;;;;;;;6598396;28;20200;-89
2022/12/01 11:12:33;;;;;;;29.50;18.53;;;;;;;;;;6598701;28;20539;-89
2022/12/01 11:15:57;;;;;;;24.73;14.93;;;;;;;;;;6580329;28;20176;-89
2022/12/01 11:19:09;;;;;;;23.50;12.97;;;;;;;;;;6598335;28;20183;-89
2022/12/01 11:22:24;;;;;;;30.03;16.10;;;;;;;;;;6599007;28;20184;-89
2022/12/01 11:25:34;;;;;;;30.30;16.10;;;;;;;;;;6580909;28;20188;-90
2022/12/01 11:28:58;;;;;;;20.70;12.00;;;;;;;;;;6597833;28;20566;-89
2022/12/01 11:32:29;;;;;;;29.37;15.87;;;;;;;;;;6580351;28;20263;-89
2022/12/01 11:35:45;;;;;;;27.93;15.63;;;;;;;;;;6596842;28;20200;-89
2022/12/01 11:38:58;;;;;;;28.33;15.97;;;;;;;;;;6579894;28;20666;-89
2022/12/01 11:42:21;;;;;;;26.30;15.87;;;;;;;;;;6598314;28;20177;-88
2022/12/01 11:45:33;;;;;;;22.97;15.27;;;;;;;;;;6595678;28;20181;-89
2022/12/01 11:48:55;;;;;;;27.37;15.33;;;;;;;;;;6578232;28;20531;-88
2022/12/01 11:52:26;;;;;;;30.43;14.77;;;;;;;;;;6578278;28;20172;-89
2022/12/01 11:55:36;;;;;;;48.87;25.47;;;;;;;;;;6577270;28;20196;-90
2022/12/01 11:58:49;;;;;;;77.17;39.37;;;;;;;;;;6593856;28;20184;-90
2022/12/01 12:02:05;;;;;;;35.83;23.40;;;;;;;;;;6577735;28;20165;-89
2022/12/01 12:05:34;;;;;;;20.20;13.53;;;;;;;;;;6596640;28;20267;-88
2022/12/01 12:08:51;;;;;;;37.17;23.33;;;;;;;;;;6597772;28;20172;-89
2022/12/01 12:12:20;;;;;;;22.17;14.50;;;;;;;;;;6594416;28;20172;-89
2022/12/01 12:15:34;;;;;;;23.37;14.97;;;;;;;;;;6572176;28;20265;-88
2022/12/01 12:18:50;;;;;;;24.67;15.13;;;;;;;;;;6597008;28;20199;-89
2022/12/01 12:22:00;;;;;;;20.63;12.17;;;;;;;;;;6570534;28;20639;-90
2022/12/01 12:25:29;;;;;;;24.63;14.13;;;;;;;;;;6595602;28;20184;-90
2022/12/01 12:28:48;;;;;;;30.77;18.70;;;;;;;;;;6591046;28;20192;-90
2022/12/01 12:31:59;;;;;;;19.07;12.57;;;;;;;;;;6595182;28;20262;-90
2022/12/01 12:35:15;;;;;;;23.93;15.27;;;;;;;;;;6597049;28;20192;-89
2022/12/01 12:38:25;;;;;;;18.37;11.17;;;;;;;;;;6578456;28;20565;-89
2022/12/01 12:41:42;;;;;;;21.57;13.43;;;;;;;;;;6593990;28;20184;-90
2022/12/01 12:44:57;;;;;;;19.60;12.47;;;;;;;;;;6594454;28;20165;-89
2022/12/01 12:48:07;;;;;;;27.50;16.60;;;;;;;;;;6593786;28;20577;-89
2022/12/01 12:51:23;;;;;;;25.97;14.67;;;;;;;;;;6592848;28;20176;-88
2022/12/01 12:54:39;;;;;;;29.60;18.40;;;;;;;;;;6592347;28;20631;-88
2022/12/01 12:57:56;;;;;;;25.80;14.63;;;;;;;;;;6575024;28;20215;-87
2022/12/01 13:01:10;;;;;;;29.83;16.00;;;;;;;;;;6577790;28;20267;-88
2022/12/01 13:04:21;;;;;;;39.37;20.90;;;;;;;;;;6577805;28;20689;-88
2022/12/01 13:07:31;;;;;;;30.73;18.93;;;;;;;;;;6574787;28;20242;-87
2022/12/01 13:10:45;;;;;;;23.73;14.70;;;;;;;;;;6595035;28;20255;-87
2022/12/01 13:14:05;;;;;;;24.83;15.40;;;;;;;;;;6594945;28;20176;-87
2022/12/01 13:17:18;;;;;;;20.73;12.40;;;;;;;;;;6575092;28;20204;-89
2022/12/01 13:20:30;;;;;;;31.73;18.17;;;;;;;;;;6593752;28;20634;-89
2022/12/01 13:23:42;;;;;;;33.57;19.27;;;;;;;;;;6594012;28;20222;-88
2022/12/01 13:26:58;;;;;;;32.53;18.23;;;;;;;;;;6594059;28;20183;-88
2022/12/01 13:30:21;;;;;;;29.17;14.50;;;;;;;;;;6593909;28;20169;-87
2022/12/01 13:33:32;;;;;;;28.30;16.10;;;;;;;;;;6591066;28;20582;-88
2022/12/01 13:36:47;;;;;;;30.77;16.63;;;;;;;;;;6594269;28;20208;-86
2022/12/01 13:40:16;;;;;;;27.67;17.33;;;;;;;;;;6596166;28;20575;-87
2022/12/01 13:43:26;;;;;;;24.83;14.20;;;;;;;;;;6595936;28;20168;-87
2022/12/01 13:46:42;;;;;;;27.00;13.73;;;;;;;;;;6596289;28;20180;-87
2022/12/01 13:49:53;;;;;;;29.40;17.20;;;;;;;;;;6594626;28;20179;-87
2022/12/01 13:53:09;;;;;;;41.07;22.57;;;;;;;;;;6579124;28;20181;-87
2022/12/01 13:56:19;;;;;;;26.30;15.77;;;;;;;;;;6569746;28;20226;-87
2022/12/01 13:59:40;;;;;;;34.93;20.03;;;;;;;;;;6569585;28;20169;-87
2022/12/01 14:03:08;;;;;;;36.03;20.03;;;;;;;;;;6569956;28;20177;-87
2022/12/01 14:06:24;;;;;;;33.47;18.40;;;;;;;;;;6569468;28;20176;-87
2022/12/01 14:09:36;;;;;;;21.07;12.63;;;;;;;;;;6551803;28;20208;-87
2022/12/01 14:12:47;;;;;;;27.10;15.63;;;;;;;;;;6586406;28;20254;-86
2022/12/01 14:15:59;;;;;;;31.53;18.70;;;;;;;;;;6595210;28;20176;-87
2022/12/01 14:19:24;;;;;;;33.33;16.07;;;;;;;;;;6594783;28;20512;-87
2022/12/01 14:22:44;;;;;;;34.40;17.23;;;;;;;;;;6596274;28;20191;-87
2022/12/01 14:25:56;;;;;;;35.97;17.60;;;;;;;;;;6599935;28;20161;-88
2022/12/01 14:29:08;;;;;;;35.43;20.33;;;;;;;;;;6599701;28;20218;-88
2022/12/01 14:32:20;;;;;;;31.53;16.80;;;;;;;;;;6581455;28;20694;-88
2022/12/01 14:35:30;;;;;;;31.90;16.97;;;;;;;;;;6599659;28;20231;-88
2022/12/01 14:38:41;;;;;;;33.83;19.60;;;;;;;;;;6599604;28;20196;-88
2022/12/01 14:41:59;;;;;;;37.57;18.57;;;;;;;;;;6582688;28;20507;-88
2022/12/01 14:45:12;;;;;;;42.87;23.10;;;;;;;;;;6598310;28;20604;-89
2022/12/01 14:48:31;;;;;;;39.67;20.93;;;;;;;;;;6581937;28;20658;-88
2022/12/01 14:51:43;;;;;;;59.80;30.83;;;;;;;;;;6598498;28;20247;-88
2022/12/01 14:54:55;;;;;;;54.33;26.27;;;;;;;;;;6597250;28;20180;-88
2022/12/01 14:58:31;;;;;;;40.93;20.97;;;;;;;;;;6580561;28;20291;-88
2022/12/01 15:01:42;;;;;;;47.03;25.00;;;;;;;;;;6595281;28;20193;-88
2022/12/01 15:05:05;;;;;;;44.30;21.57;;;;;;;;;;6580004;28;20188;-88
2022/12/01 15:08:27;;;;;;;47.70;24.70;;;;;;;;;;6598094;28;20195;-88
2022/12/01 15:11:38;;;;;;;40.63;21.17;;;;;;;;;;6597079;28;20184;-89
2022/12/01 15:14:49;;;;;;;40.37;22.13;;;;;;;;;;6594041;28;20271;-89
2022/12/01 15:18:03;;;;;;;40.03;21.47;;;;;;;;;;6594664;28;20652;-90
2022/12/01 15:21:31;;;;;;;52.90;26.50;;;;;;;;;;6596649;28;20587;-88
2022/12/01 15:24:42;;;;;;;41.53;20.03;;;;;;;;;;6564798;28;20202;-88
2022/12/01 15:28:22;;;;;;;37.63;17.87;;;;;;;;;;6579920;28;20177;-87
2022/12/01 15:31:33;;;;;;;53.47;30.83;;;;;;;;;;6576526;28;20319;-88
2022/12/01 15:34:45;;;;;;;47.10;25.27;;;;;;;;;;6596878;28;20269;-88
2022/12/01 15:37:56;;;;;;;53.23;25.67;;;;;;;;;;6596676;28;20267;-88
2022/12/01 15:41:06;;;;;;;48.03;24.40;;;;;;;;;;6596490;28;20176;-89
2022/12/01 15:44:24;;;;;;;45.23;22.70;;;;;;;;;;6578224;28;20187;-90
2022/12/01 15:47:43;;;;;;;38.00;19.83;;;;;;;;;;6595179;28;20198;-89
2022/12/01 15:51:01;;;;;;;47.07;24.53;;;;;;;;;;6598106;28;20165;-89
2022/12/01 15:54:18;;;;;;;60.40;31.43;;;;;;;;;;6596994;28;20181;-89
2022/12/01 15:57:28;;;;;;;45.03;22.07;;;;;;;;;;6596863;28;20223;-89
2022/12/01 16:00:39;;;;;;;52.63;27.83;;;;;;;;;;6594772;28;20181;-88
2022/12/01 16:03:51;;;;;;;63.37;30.87;;;;;;;;;;6593970;28;20180;-88
2022/12/01 16:07:06;;;;;;;47.10;22.33;;;;;;;;;;6596900;28;20177;-88
2022/12/01 16:10:27;;;;;;;46.93;23.40;;;;;;;;;;6577929;28;20238;-89
2022/12/01 16:13:39;;;;;;;53.63;28.57;;;;;;;;;;6593089;28;20520;-90
2022/12/01 16:16:50;;;;;;;53.03;27.57;;;;;;;;;;6570178;28;20251;-89
2022/12/01 16:20:18;;;;;;;32.43;16.60;;;;;;;;;;6593054;28;20184;-87
2022/12/01 16:23:31;;;;;;;32.80;17.70;;;;;;;;;;6591987;28;20660;-89
2022/12/01 16:26:46;;;;;;;48.30;26.87;;;;;;;;;;6555863;28;20230;-88
2022/12/01 16:29:58;;;;;;;48.43;26.70;;;;;;;;;;6575940;28;20192;-91
2022/12/01 16:33:16;;;;;;;48.23;24.60;;;;;;;;;;6593541;28;20586;-89
2022/12/01 16:36:27;;;;;;;41.50;22.07;;;;;;;;;;6594532;28;20523;-89
2022/12/01 16:39:38;;;;;;;33.27;17.90;;;;;;;;;;6594967;28;20314;-89
2022/12/01 16:42:48;;;;;;;40.77;22.23;;;;;;;;;;6576384;28;20289;-89
2022/12/01 16:46:00;;;;;;;44.87;23.43;;;;;;;;;;6575049;28;20191;-89
2022/12/01 16:49:10;;;;;;;38.93;20.00;;;;;;;;;;6594308;28;20279;-88
2022/12/01 16:52:22;;;;;;;43.60;23.40;;;;;;;;;;6577902;28;20187;-89
2022/12/01 16:55:32;;;;;;;38.00;19.43;;;;;;;;;;6593887;28;20172;-90
2022/12/01 16:58:43;;;;;;;40.20;21.13;;;;;;;;;;6573953;28;20212;-90
2022/12/01 17:01:54;;;;;;;53.20;27.03;;;;;;;;;;6576584;28;20178;-90
2022/12/01 17:05:04;;;;;;;43.23;23.90;;;;;;;;;;6594940;28;20183;-90
2022/12/01 17:08:15;;;;;;;47.03;23.57;;;;;;;;;;6594686;28;20172;-90
2022/12/01 17:11:25;;;;;;;35.67;20.17;;;;;;;;;;6595816;28;20180;-90
2022/12/01 17:14:35;;;;;;;32.57;16.50;;;;;;;;;;6595188;28;20511;-90
2022/12/01 17:17:46;;;;;;;32.00;17.43;;;;;;;;;;6593277;28;20212;-90
2022/12/01 17:21:00;;;;;;;44.13;22.80;;;;;;;;;;6595016;28;20242;-90
2022/12/01 17:24:11;;;;;;;38.27;20.50;;;;;;;;;;6577474;28;20184;-90
2022/12/01 17:27:26;;;;;;;35.73;18.73;;;;;;;;;;6577331;28;20168;-90
2022/12/01 17:30:36;;;;;;;62.20;33.03;;;;;;;;;;6572308;28;20188;-90
2022/12/01 17:33:47;;;;;;;30.97;17.40;;;;;;;;;;6576914;28;20259;-90
2022/12/01 17:36:57;;;;;;;59.27;28.37;;;;;;;;;;6594698;28;20239;-90
2022/12/01 17:40:10;;;;;;;49.30;23.00;;;;;;;;;;6594777;28;20198;-90
2022/12/01 17:43:22;;;;;;;39.37;20.97;;;;;;;;;;6594353;28;20184;-90
2022/12/01 17:46:32;;;;;;;24.87;14.70;;;;;;;;;;6593543;28;20180;-90
2022/12/01 17:49:42;;;;;;;35.60;20.27;;;;;;;;;;6576572;28;20184;-90
2022/12/01 17:52:53;;;;;;;29.73;16.27;;;;;;;;;;6594595;28;20635;-90
2022/12/01 17:56:05;;;;;;;41.47;22.73;;;;;;;;;;6594427;28;20171;-90
2022/12/01 17:59:17;;;;;;;32.90;18.47;;;;;;;;;;6577909;28;20184;-88
2022/12/01 18:02:28;;;;;;;26.00;16.00;;;;;;;;;;6562966;28;20187;-89
2022/12/01 18:05:38;;;;;;;28.90;16.40;;;;;;;;;;6597950;28;20623;-89
2022/12/01 18:08:50;;;;;;;32.73;18.57;;;;;;;;;;6596615;28;20191;-89
2022/12/01 18:12:01;;;;;;;29.97;15.47;;;;;;;;;;6577700;28;20516;-88
2022/12/01 18:15:13;;;;;;;33.53;16.63;;;;;;;;;;6577784;28;20246;-89
2022/12/01 18:18:23;;;;;;;39.17;21.93;;;;;;;;;;6570465;28;20212;-89
2022/12/01 18:21:33;;;;;;;42.27;26.20;;;;;;;;;;6596449;28;20203;-88
2022/12/01 18:24:43;;;;;;;46.63;23.63;;;;;;;;;;6596097;28;20587;-89
2022/12/01 18:27:57;;;;;;;33.43;18.43;;;;;;;;;;6574970;28;20173;-88
2022/12/01 18:31:09;;;;;;;51.77;28.20;;;;;;;;;;6596247;28;20268;-89
2022/12/01 18:34:19;;;;;;;48.13;24.17;;;;;;;;;;6594920;28;20207;-90
2022/12/01 18:37:30;;;;;;;53.27;26.70;;;;;;;;;;6580226;28;20243;-89
2022/12/01 18:40:40;;;;;;;54.83;23.30;;;;;;;;;;6599225;28;20176;-89
2022/12/01 18:43:51;;;;;;;56.10;27.17;;;;;;;;;;6582438;28;20177;-89
2022/12/01 18:47:02;;;;;;;40.10;20.63;;;;;;;;;;6598784;28;20322;-89
2022/12/01 18:50:12;;;;;;;47.07;24.13;;;;;;;;;;6599281;28;20180;-89